sensor_id;sensor_type;location;lat;lon;timestamp;pressure;altitude;pressure_sealevel;temperature;humidity
61109;BME280;46995;55.740;37.402;2023-05-03T00:01:08;99701.22;;;8.37;49.96
61109;BME280;46995;55.740;37.402;2023-05-03T00:03:34;99703.75;;;8.39;49.93
61109;BME280;46995;55.740;37.402;2023-05-03T00:06:14;99698.09;;;8.32;50.42
61109;BME280;46995;55.740;37.402;2023-05-03T00:08:41;99694.00;;;8.28;49.83
61109;BME280;46995;55.740;37.402;2023-05-03T00:11:08;99699.34;;;8.39;49.97
61109;BME280;46995;55.740;37.402;2023-05-03T00:13:34;99682.94;;;8.36;50.28
61109;BME280;46995;55.740;37.402;2023-05-03T00:16:00;99687.97;;;8.39;50.46
61109;BME280;46995;55.740;37.402;2023-05-03T00:18:26;99685.00;;;8.43;50.23
61109;BME280;46995;55.740;37.402;2023-05-03T00:20:53;99693.38;;;8.48;49.85
61109;BME280;46995;55.740;37.402;2023-05-03T00:23:20;99693.63;;;8.45;49.95
61109;BME280;46995;55.740;37.402;2023-05-03T00:25:45;99690.25;;;8.43;50.25
61109;BME280;46995;55.740;37.402;2023-05-03T00:28:11;99675.53;;;8.41;50.23
61109;BME280;46995;55.740;37.402;2023-05-03T00:30:37;99671.78;;;8.32;50.21
61109;BME280;46995;55.740;37.402;2023-05-03T00:33:03;99669.47;;;8.28;50.58
61109;BME280;46995;55.740;37.402;2023-05-03T00:35:29;99666.97;;;8.26;50.45
61109;BME280;46995;55.740;37.402;2023-05-03T00:37:54;99669.16;;;8.32;50.73
61109;BME280;46995;55.740;37.402;2023-05-03T00:40:20;99669.28;;;8.31;50.89
61109;BME280;46995;55.740;37.402;2023-05-03T00:42:46;99674.56;;;8.31;50.91
61109;BME280;46995;55.740;37.402;2023-05-03T00:45:12;99658.09;;;8.27;50.77
61109;BME280;46995;55.740;37.402;2023-05-03T00:47:38;99663.50;;;8.26;51.04
61109;BME280;46995;55.740;37.402;2023-05-03T00:50:05;99662.88;;;8.22;50.97
61109;BME280;46995;55.740;37.402;2023-05-03T00:52:33;99640.00;;;8.12;51.14
61109;BME280;46995;55.740;37.402;2023-05-03T00:54:59;99648.50;;;8.15;51.22
61109;BME280;46995;55.740;37.402;2023-05-03T00:57:27;99639.69;;;8.16;51.71
61109;BME280;46995;55.740;37.402;2023-05-03T00:59:54;99631.28;;;8.11;51.49
61109;BME280;46995;55.740;37.402;2023-05-03T01:02:21;99617.16;;;8.12;51.45
61109;BME280;46995;55.740;37.402;2023-05-03T01:04:47;99601.84;;;8.06;51.65
61109;BME280;46995;55.740;37.402;2023-05-03T01:10:50;99636.06;;;8.17;51.04
61109;BME280;46995;55.740;37.402;2023-05-03T01:15:57;99640.44;;;8.29;51.11
61109;BME280;46995;55.740;37.402;2023-05-03T01:18:29;99634.84;;;8.34;51.23
61109;BME280;46995;55.740;37.402;2023-05-03T01:20:58;99618.00;;;8.36;51.09
61109;BME280;46995;55.740;37.402;2023-05-03T01:28:47;99585.81;;;8.33;50.77
61109;BME280;46995;55.740;37.402;2023-05-03T01:31:22;99600.78;;;8.43;50.93
61109;BME280;46995;55.740;37.402;2023-05-03T01:36:40;99600.56;;;8.46;50.76
61109;BME280;46995;55.740;37.402;2023-05-03T01:39:11;99602.09;;;8.49;50.92
61109;BME280;46995;55.740;37.402;2023-05-03T01:41:40;99599.81;;;8.44;50.82
61109;BME280;46995;55.740;37.402;2023-05-03T01:44:07;99591.72;;;8.47;50.80
61109;BME280;46995;55.740;37.402;2023-05-03T01:46:33;99598.63;;;8.48;50.73
61109;BME280;46995;55.740;37.402;2023-05-03T01:48:59;99589.78;;;8.49;50.68
61109;BME280;46995;55.740;37.402;2023-05-03T01:51:25;99598.41;;;8.52;50.70
61109;BME280;46995;55.740;37.402;2023-05-03T01:53:50;99599.59;;;8.47;50.56
61109;BME280;46995;55.740;37.402;2023-05-03T01:56:16;99586.19;;;8.50;50.50
61109;BME280;46995;55.740;37.402;2023-05-03T01:58:42;99588.72;;;8.52;50.62
61109;BME280;46995;55.740;37.402;2023-05-03T02:01:08;99582.63;;;8.52;50.59
61109;BME280;46995;55.740;37.402;2023-05-03T02:03:34;99582.63;;;8.52;50.81
61109;BME280;46995;55.740;37.402;2023-05-03T02:06:00;99596.00;;;8.60;50.76
61109;BME280;46995;55.740;37.402;2023-05-03T02:08:28;99597.94;;;8.58;51.13
61109;BME280;46995;55.740;37.402;2023-05-03T02:10:54;99560.31;;;8.33;51.03
61109;BME280;46995;55.740;37.402;2023-05-03T02:13:23;99586.94;;;8.53;51.00
61109;BME280;46995;55.740;37.402;2023-05-03T02:15:58;99568.97;;;8.46;51.18
61109;BME280;46995;55.740;37.402;2023-05-03T02:18:27;99556.75;;;8.34;50.95
61109;BME280;46995;55.740;37.402;2023-05-03T02:20:56;99590.16;;;8.56;51.07
61109;BME280;46995;55.740;37.402;2023-05-03T02:23:23;99569.44;;;8.40;51.04
61109;BME280;46995;55.740;37.402;2023-05-03T02:25:49;99580.00;;;8.52;51.18
61109;BME280;46995;55.740;37.402;2023-05-03T02:28:15;99567.53;;;8.42;51.14
61109;BME280;46995;55.740;37.402;2023-05-03T02:30:41;99577.81;;;8.45;51.24
61109;BME280;46995;55.740;37.402;2023-05-03T02:33:07;99560.59;;;8.41;50.99
61109;BME280;46995;55.740;37.402;2023-05-03T02:35:35;99563.72;;;8.46;50.75
61109;BME280;46995;55.740;37.402;2023-05-03T02:38:00;99568.84;;;8.59;50.94
61109;BME280;46995;55.740;37.402;2023-05-03T02:40:26;99581.44;;;8.67;50.78
61109;BME280;46995;55.740;37.402;2023-05-03T02:42:54;99575.44;;;8.76;50.76
61109;BME280;46995;55.740;37.402;2023-05-03T02:45:24;99583.25;;;8.77;50.45
61109;BME280;46995;55.740;37.402;2023-05-03T02:47:50;99586.47;;;8.81;50.50
61109;BME280;46995;55.740;37.402;2023-05-03T02:50:16;99572.34;;;8.82;50.54
61109;BME280;46995;55.740;37.402;2023-05-03T02:52:42;99576.66;;;8.83;50.45
61109;BME280;46995;55.740;37.402;2023-05-03T02:55:08;99579.75;;;8.88;50.59
61109;BME280;46995;55.740;37.402;2023-05-03T02:57:35;99566.97;;;8.83;50.38
61109;BME280;46995;55.740;37.402;2023-05-03T03:00:02;99584.56;;;8.94;50.31
61109;BME280;46995;55.740;37.402;2023-05-03T03:02:30;99586.22;;;8.95;50.46
61109;BME280;46995;55.740;37.402;2023-05-03T03:04:56;99586.00;;;8.98;50.26
61109;BME280;46995;55.740;37.402;2023-05-03T03:07:22;99580.47;;;9.01;50.47
61109;BME280;46995;55.740;37.402;2023-05-03T03:09:52;99575.44;;;8.98;50.46
61109;BME280;46995;55.740;37.402;2023-05-03T03:12:19;99597.22;;;9.11;50.37
61109;BME280;46995;55.740;37.402;2023-05-03T03:14:46;99585.03;;;9.10;50.28
61109;BME280;46995;55.740;37.402;2023-05-03T03:17:12;99578.44;;;9.05;49.90
61109;BME280;46995;55.740;37.402;2023-05-03T03:19:38;99585.03;;;9.10;50.49
61109;BME280;46995;55.740;37.402;2023-05-03T03:22:04;99586.19;;;9.17;50.00
61109;BME280;46995;55.740;37.402;2023-05-03T03:24:31;99598.28;;;9.31;49.99
61109;BME280;46995;55.740;37.402;2023-05-03T03:26:57;99600.78;;;9.32;49.85
61109;BME280;46995;55.740;37.402;2023-05-03T03:29:24;99594.34;;;9.25;49.66
61109;BME280;46995;55.740;37.402;2023-05-03T03:31:50;99597.44;;;9.30;49.88
61109;BME280;46995;55.740;37.402;2023-05-03T03:34:17;99602.72;;;9.30;49.74
61109;BME280;46995;55.740;37.402;2023-05-03T03:36:43;99602.47;;;9.33;49.75
61109;BME280;46995;55.740;37.402;2023-05-03T03:39:09;99605.56;;;9.39;49.75
61109;BME280;46995;55.740;37.402;2023-05-03T03:41:36;99600.28;;;9.39;49.33
61109;BME280;46995;55.740;37.402;2023-05-03T03:44:02;99612.03;;;9.46;49.47
61109;BME280;46995;55.740;37.402;2023-05-03T03:46:28;99619.69;;;9.49;49.87
61109;BME280;46995;55.740;37.402;2023-05-03T03:48:57;99595.28;;;9.35;50.69
61109;BME280;46995;55.740;37.402;2023-05-03T03:51:25;99626.16;;;9.45;52.13
61109;BME280;46995;55.740;37.402;2023-05-03T03:53:51;99611.09;;;9.35;53.11
61109;BME280;46995;55.740;37.402;2023-05-03T03:56:18;99625.22;;;9.34;54.73
61109;BME280;46995;55.740;37.402;2023-05-03T03:58:48;99637.22;;;9.27;55.47
61109;BME280;46995;55.740;37.402;2023-05-03T04:01:14;99613.75;;;9.13;56.31
61109;BME280;46995;55.740;37.402;2023-05-03T04:03:44;99631.47;;;9.22;57.37
61109;BME280;46995;55.740;37.402;2023-05-03T04:06:12;99624.50;;;9.21;56.73
61109;BME280;46995;55.740;37.402;2023-05-03T04:08:38;99618.06;;;9.14;58.23
61109;BME280;46995;55.740;37.402;2023-05-03T04:11:08;99616.03;;;9.18;59.54
61109;BME280;46995;55.740;37.402;2023-05-03T04:13:36;99607.75;;;9.11;58.36
61109;BME280;46995;55.740;37.402;2023-05-03T04:16:02;99602.50;;;9.11;58.39
61109;BME280;46995;55.740;37.402;2023-05-03T04:18:28;99614.13;;;9.20;58.35
61109;BME280;46995;55.740;37.402;2023-05-03T04:20:56;99622.13;;;9.29;58.34
61109;BME280;46995;55.740;37.402;2023-05-03T04:23:22;99612.78;;;9.25;58.69
61109;BME280;46995;55.740;37.402;2023-05-03T04:25:48;99631.81;;;9.29;59.49
61109;BME280;46995;55.740;37.402;2023-05-03T04:28:16;99568.28;;;9.00;58.98
61109;BME280;46995;55.740;37.402;2023-05-03T04:30:46;99613.66;;;9.15;57.93
61109;BME280;46995;55.740;37.402;2023-05-03T04:33:15;99613.03;;;9.11;58.09
61109;BME280;46995;55.740;37.402;2023-05-03T04:35:41;99637.00;;;9.19;58.41
61109;BME280;46995;55.740;37.402;2023-05-03T04:38:11;99643.56;;;9.36;58.70
61109;BME280;46995;55.740;37.402;2023-05-03T04:40:37;99638.88;;;9.40;58.60
61109;BME280;46995;55.740;37.402;2023-05-03T04:43:06;99628.81;;;9.33;58.73
61109;BME280;46995;55.740;37.402;2023-05-03T04:45:36;99647.00;;;9.48;58.84
61109;BME280;46995;55.740;37.402;2023-05-03T04:48:06;99653.72;;;9.52;58.71
61109;BME280;46995;55.740;37.402;2023-05-03T04:50:34;99647.00;;;9.59;58.56
61109;BME280;46995;55.740;37.402;2023-05-03T04:53:01;99643.78;;;9.55;58.43
61109;BME280;46995;55.740;37.402;2023-05-03T04:55:31;99649.13;;;9.65;58.45
61109;BME280;46995;55.740;37.402;2023-05-03T04:57:58;99633.81;;;9.59;58.21
61109;BME280;46995;55.740;37.402;2023-05-03T05:00:25;99635.66;;;9.79;58.10
61109;BME280;46995;55.740;37.402;2023-05-03T05:02:57;99655.56;;;9.94;57.90
61109;BME280;46995;55.740;37.402;2023-05-03T05:05:28;99644.63;;;9.99;57.46
61109;BME280;46995;55.740;37.402;2023-05-03T05:07:54;99632.28;;;9.99;57.29
61109;BME280;46995;55.740;37.402;2023-05-03T05:10:20;99645.66;;;10.07;57.30
61109;BME280;46995;55.740;37.402;2023-05-03T05:12:46;99644.31;;;10.13;57.68
61109;BME280;46995;55.740;37.402;2023-05-03T05:15:12;99624.28;;;10.10;56.81
61109;BME280;46995;55.740;37.402;2023-05-03T05:17:39;99656.53;;;10.25;56.81
61109;BME280;46995;55.740;37.402;2023-05-03T05:20:08;99657.84;;;10.31;56.95
61109;BME280;46995;55.740;37.402;2023-05-03T05:22:38;99646.81;;;10.26;57.19
61109;BME280;46995;55.740;37.402;2023-05-03T05:25:05;99655.88;;;10.33;57.38
61109;BME280;46995;55.740;37.402;2023-05-03T05:27:35;99630.50;;;10.20;57.25
61109;BME280;46995;55.740;37.402;2023-05-03T05:30:03;99632.00;;;10.34;57.43
61109;BME280;46995;55.740;37.402;2023-05-03T05:32:31;99657.69;;;10.53;57.46
61109;BME280;46995;55.740;37.402;2023-05-03T05:34:57;99651.22;;;10.57;57.17
61109;BME280;46995;55.740;37.402;2023-05-03T05:37:25;99638.75;;;10.48;57.13
61109;BME280;46995;55.740;37.402;2023-05-03T05:39:58;99644.81;;;10.59;57.51
61109;BME280;46995;55.740;37.402;2023-05-03T05:42:28;99649.72;;;10.64;57.10
61109;BME280;46995;55.740;37.402;2023-05-03T05:44:54;99654.75;;;10.67;57.40
61109;BME280;46995;55.740;37.402;2023-05-03T05:47:21;99652.56;;;10.72;57.23
61109;BME280;46995;55.740;37.402;2023-05-03T05:49:49;99650.88;;;10.71;57.20
61109;BME280;46995;55.740;37.402;2023-05-03T05:52:15;99652.63;;;10.82;57.24
61109;BME280;46995;55.740;37.402;2023-05-03T05:54:41;99642.38;;;10.88;57.02
61109;BME280;46995;55.740;37.402;2023-05-03T05:57:07;99651.63;;;11.03;56.88
61109;BME280;46995;55.740;37.402;2023-05-03T05:59:34;99640.31;;;11.01;57.02
61109;BME280;46995;55.740;37.402;2023-05-03T06:02:01;99647.78;;;11.17;57.22
61109;BME280;46995;55.740;37.402;2023-05-03T06:04:28;99644.28;;;11.17;56.88
61109;BME280;46995;55.740;37.402;2023-05-03T06:06:55;99640.25;;;11.13;56.70
61109;BME280;46995;55.740;37.402;2023-05-03T06:09:21;99645.53;;;11.13;56.86
61109;BME280;46995;55.740;37.402;2023-05-03T06:11:46;99638.56;;;11.12;56.82
61109;BME280;46995;55.740;37.402;2023-05-03T06:14:13;99644.28;;;11.17;56.51
61109;BME280;46995;55.740;37.402;2023-05-03T06:16:40;99658.66;;;11.24;56.40
61109;BME280;46995;55.740;37.402;2023-05-03T06:19:07;99668.44;;;11.42;56.04
61109;BME280;46995;55.740;37.402;2023-05-03T06:21:33;99661.69;;;11.59;55.69
61109;BME280;46995;55.740;37.402;2023-05-03T06:23:59;99656.75;;;11.75;55.11
61109;BME280;46995;55.740;37.402;2023-05-03T06:26:26;99668.06;;;11.97;55.06
61109;BME280;46995;55.740;37.402;2023-05-03T06:28:52;99661.69;;;12.18;54.49
61109;BME280;46995;55.740;37.402;2023-05-03T06:31:20;99659.16;;;12.36;54.14
61109;BME280;46995;55.740;37.402;2023-05-03T06:33:47;99664.03;;;12.50;53.63
61109;BME280;46995;55.740;37.402;2023-05-03T06:36:12;99649.25;;;12.48;53.56
61109;BME280;46995;55.740;37.402;2023-05-03T06:38:39;99665.56;;;12.53;53.37
61109;BME280;46995;55.740;37.402;2023-05-03T06:41:05;99662.63;;;12.46;53.39
61109;BME280;46995;55.740;37.402;2023-05-03T06:43:32;99634.34;;;12.37;53.12
61109;BME280;46995;55.740;37.402;2023-05-03T06:46:03;99650.53;;;12.34;53.21
61109;BME280;46995;55.740;37.402;2023-05-03T06:48:29;99666.94;;;12.47;53.54
61109;BME280;46995;55.740;37.402;2023-05-03T06:50:55;99668.06;;;12.54;53.26
61109;BME280;46995;55.740;37.402;2023-05-03T06:53:20;99660.81;;;12.56;53.73
61109;BME280;46995;55.740;37.402;2023-05-03T06:55:47;99658.84;;;12.58;53.11
61109;BME280;46995;55.740;37.402;2023-05-03T06:58:13;99671.09;;;12.79;53.12
61109;BME280;46995;55.740;37.402;2023-05-03T07:00:40;99665.22;;;12.85;53.17
61109;BME280;46995;55.740;37.402;2023-05-03T07:03:06;99658.81;;;12.78;52.54
61109;BME280;46995;55.740;37.402;2023-05-03T07:05:31;99663.56;;;12.84;52.74
61109;BME280;46995;55.740;37.402;2023-05-03T07:07:58;99682.91;;;12.94;52.59
61109;BME280;46995;55.740;37.402;2023-05-03T07:10:23;99672.03;;;12.97;52.42
61109;BME280;46995;55.740;37.402;2023-05-03T07:12:49;99667.16;;;12.83;52.54
61109;BME280;46995;55.740;37.402;2023-05-03T07:15:15;99661.47;;;12.87;52.19
61109;BME280;46995;55.740;37.402;2023-05-03T07:17:41;99685.41;;;13.05;52.31
61109;BME280;46995;55.740;37.402;2023-05-03T07:20:07;99676.88;;;13.11;52.03
61109;BME280;46995;55.740;37.402;2023-05-03T07:22:33;99675.19;;;13.20;51.84
61109;BME280;46995;55.740;37.402;2023-05-03T07:24:58;99689.38;;;13.38;51.87
61109;BME280;46995;55.740;37.402;2023-05-03T07:27:25;99672.94;;;13.34;51.35
61109;BME280;46995;55.740;37.402;2023-05-03T07:29:51;99669.84;;;13.39;51.43
61109;BME280;46995;55.740;37.402;2023-05-03T07:32:18;99689.13;;;13.58;51.74
61109;BME280;46995;55.740;37.402;2023-05-03T07:34:44;99685.84;;;13.74;50.94
61109;BME280;46995;55.740;37.402;2023-05-03T07:37:09;99668.03;;;13.84;50.63
61109;BME280;46995;55.740;37.402;2023-05-03T07:39:35;99673.44;;;14.10;49.96
61109;BME280;46995;55.740;37.402;2023-05-03T07:42:01;99674.59;;;14.25;49.94
61109;BME280;46995;55.740;37.402;2023-05-03T07:44:27;99682.66;;;14.33;50.09
61109;BME280;46995;55.740;37.402;2023-05-03T07:46:52;99699.19;;;14.45;49.63
61109;BME280;46995;55.740;37.402;2023-05-03T07:49:18;99694.44;;;14.49;49.48
61109;BME280;46995;55.740;37.402;2023-05-03T07:51:44;99710.16;;;14.60;49.29
61109;BME280;46995;55.740;37.402;2023-05-03T07:54:10;99689.28;;;14.47;49.32
61109;BME280;46995;55.740;37.402;2023-05-03T07:56:35;99719.94;;;14.59;49.18
61109;BME280;46995;55.740;37.402;2023-05-03T07:59:02;99722.00;;;14.48;49.31
61109;BME280;46995;55.740;37.402;2023-05-03T08:01:27;99719.84;;;14.33;49.62
61109;BME280;46995;55.740;37.402;2023-05-03T08:03:53;99716.03;;;14.18;49.98
61109;BME280;46995;55.740;37.402;2023-05-03T08:06:19;99707.53;;;13.97;50.14
61109;BME280;46995;55.740;37.402;2023-05-03T08:08:45;99706.19;;;13.83;50.46
61109;BME280;46995;55.740;37.402;2023-05-03T08:11:10;99709.03;;;13.72;50.34
61109;BME280;46995;55.740;37.402;2023-05-03T08:13:36;99718.53;;;13.75;50.62
61109;BME280;46995;55.740;37.402;2023-05-03T08:16:03;99725.34;;;13.77;51.25
61109;BME280;46995;55.740;37.402;2023-05-03T08:18:30;99734.06;;;13.70;52.06
61109;BME280;46995;55.740;37.402;2023-05-03T08:20:56;99738.09;;;13.74;52.07
61109;BME280;46995;55.740;37.402;2023-05-03T08:23:22;99731.41;;;13.70;52.54
61109;BME280;46995;55.740;37.402;2023-05-03T08:25:48;99736.72;;;13.70;52.79
61109;BME280;46995;55.740;37.402;2023-05-03T08:28:14;99745.75;;;13.77;53.06
61109;BME280;46995;55.740;37.402;2023-05-03T08:30:40;99735.25;;;13.85;53.49
61109;BME280;46995;55.740;37.402;2023-05-03T08:33:06;99734.94;;;13.88;53.77
61109;BME280;46995;55.740;37.402;2023-05-03T08:35:35;99740.19;;;13.97;54.43
61109;BME280;46995;55.740;37.402;2023-05-03T08:38:01;99746.34;;;13.98;54.19
61109;BME280;46995;55.740;37.402;2023-05-03T08:40:27;99745.81;;;13.94;55.12
61109;BME280;46995;55.740;37.402;2023-05-03T08:42:54;99738.88;;;13.84;55.86
61109;BME280;46995;55.740;37.402;2023-05-03T08:45:21;99731.41;;;13.70;55.83
61109;BME280;46995;55.740;37.402;2023-05-03T08:47:52;99728.38;;;13.65;56.48
61109;BME280;46995;55.740;37.402;2023-05-03T08:50:20;99724.75;;;13.56;56.59
61109;BME280;46995;55.740;37.402;2023-05-03T08:52:47;99712.50;;;13.45;56.79
61109;BME280;46995;55.740;37.402;2023-05-03T08:55:13;99720.06;;;13.50;57.24
61109;BME280;46995;55.740;37.402;2023-05-03T08:57:39;99705.25;;;13.47;56.61
61109;BME280;46995;55.740;37.402;2023-05-03T09:00:06;99723.91;;;13.65;56.36
61109;BME280;46995;55.740;37.402;2023-05-03T09:02:35;99739.00;;;13.92;56.16
61109;BME280;46995;55.740;37.402;2023-05-03T09:07:39;99733.31;;;14.05;55.51
61109;BME280;46995;55.740;37.402;2023-05-03T09:10:21;99739.47;;;14.05;55.44
61109;BME280;46995;55.740;37.402;2023-05-03T09:12:47;99745.84;;;14.12;55.30
61109;BME280;46995;55.740;37.402;2023-05-03T09:15:20;99746.38;;;14.16;55.15
61109;BME280;46995;55.740;37.402;2023-05-03T09:18:05;99748.66;;;14.11;55.08
61109;BME280;46995;55.740;37.402;2023-05-03T09:20:35;99750.91;;;14.06;54.94
61109;BME280;46995;55.740;37.402;2023-05-03T09:23:01;99734.66;;;13.91;54.72
61109;BME280;46995;55.740;37.402;2023-05-03T09:25:41;99746.34;;;13.98;54.63
61109;BME280;46995;55.740;37.402;2023-05-03T09:28:07;99751.31;;;14.11;54.67
61109;BME280;46995;55.740;37.402;2023-05-03T09:30:33;99743.88;;;14.14;54.25
61109;BME280;46995;55.740;37.402;2023-05-03T09:32:59;99761.59;;;14.23;54.20
61109;BME280;46995;55.740;37.402;2023-05-03T09:35:25;99770.47;;;14.32;54.17
61109;BME280;46995;55.740;37.402;2023-05-03T09:37:50;99769.91;;;14.38;53.73
61109;BME280;46995;55.740;37.402;2023-05-03T09:40:16;99756.50;;;14.30;53.19
61109;BME280;46995;55.740;37.402;2023-05-03T09:43:05;99786.69;;;14.38;53.37
61109;BME280;46995;55.740;37.402;2023-05-03T09:45:35;99784.56;;;14.15;53.21
61109;BME280;46995;55.740;37.402;2023-05-03T09:48:02;99788.16;;;13.96;53.55
61109;BME280;46995;55.740;37.402;2023-05-03T09:50:33;99778.75;;;13.74;54.04
61109;BME280;46995;55.740;37.402;2023-05-03T09:53:01;99775.03;;;13.57;54.43
61109;BME280;46995;55.740;37.402;2023-05-03T09:55:36;99776.72;;;13.58;54.87
61109;BME280;46995;55.740;37.402;2023-05-03T09:58:03;99775.00;;;13.67;54.73
61109;BME280;46995;55.740;37.402;2023-05-03T10:00:37;99780.75;;;13.63;54.82
61109;BME280;46995;55.740;37.402;2023-05-03T10:03:08;99771.09;;;13.62;55.11
61109;BME280;46995;55.740;37.402;2023-05-03T10:05:46;99780.47;;;13.93;54.80
61109;BME280;46995;55.740;37.402;2023-05-03T10:08:26;99768.53;;;14.07;54.11
61109;BME280;46995;55.740;37.402;2023-05-03T10:10:55;99774.31;;;14.20;53.71
61109;BME280;46995;55.740;37.402;2023-05-03T10:13:21;99774.69;;;14.25;53.68
61109;BME280;46995;55.740;37.402;2023-05-03T10:16:09;99768.69;;;14.50;53.45
61109;BME280;46995;55.740;37.402;2023-05-03T10:18:46;99775.84;;;14.50;53.47
61109;BME280;46995;55.740;37.402;2023-05-03T10:21:23;99766.19;;;14.49;52.90
61109;BME280;46995;55.740;37.402;2023-05-03T10:24:13;99794.81;;;14.72;53.28
61109;BME280;46995;55.740;37.402;2023-05-03T10:26:50;99769.06;;;14.73;53.20
61109;BME280;46995;55.740;37.402;2023-05-03T10:35:12;99788.53;;;14.91;52.93
61109;BME280;46995;55.740;37.402;2023-05-03T10:37:40;99774.22;;;14.92;52.75
61109;BME280;46995;55.740;37.402;2023-05-03T10:40:11;99770.78;;;15.00;52.17
61109;BME280;46995;55.740;37.402;2023-05-03T10:42:41;99784.50;;;15.31;51.84
61109;BME280;46995;55.740;37.402;2023-05-03T10:45:08;99782.00;;;15.55;51.62
61109;BME280;46995;55.740;37.402;2023-05-03T10:47:43;99785.13;;;15.76;51.13
61109;BME280;46995;55.740;37.402;2023-05-03T10:50:29;99768.84;;;15.79;50.95
61109;BME280;46995;55.740;37.402;2023-05-03T10:52:55;99774.94;;;15.72;50.79
61109;BME280;46995;55.740;37.402;2023-05-03T10:55:22;99786.78;;;15.77;50.76
61109;BME280;46995;55.740;37.402;2023-05-03T10:57:54;99767.38;;;15.85;50.49
61109;BME280;46995;55.740;37.402;2023-05-03T11:00:36;99786.75;;;16.03;50.24
61109;BME280;46995;55.740;37.402;2023-05-03T11:03:24;99789.25;;;16.04;50.10
61109;BME280;46995;55.740;37.402;2023-05-03T11:05:55;99790.88;;;15.97;50.46
61109;BME280;46995;55.740;37.402;2023-05-03T11:08:22;99797.31;;;15.87;50.64
61109;BME280;46995;55.740;37.402;2023-05-03T11:10:59;99802.47;;;15.80;50.48
61109;BME280;46995;55.740;37.402;2023-05-03T11:13:26;99780.03;;;15.57;50.91
61109;BME280;46995;55.740;37.402;2023-05-03T11:15:53;99786.69;;;15.61;51.08
61109;BME280;46995;55.740;37.402;2023-05-03T11:18:24;99777.94;;;15.43;51.28
61109;BME280;46995;55.740;37.402;2023-05-03T11:20:52;99773.44;;;15.43;51.40
61109;BME280;46995;55.740;37.402;2023-05-03T11:23:18;99764.97;;;15.48;50.99
61109;BME280;46995;55.740;37.402;2023-05-03T11:25:51;99785.78;;;15.70;50.71
61109;BME280;46995;55.740;37.402;2023-05-03T11:28:16;99768.84;;;15.79;50.99
61109;BME280;46995;55.740;37.402;2023-05-03T11:30:45;99769.50;;;15.81;50.73
61109;BME280;46995;55.740;37.402;2023-05-03T11:33:11;99764.66;;;15.77;50.52
61109;BME280;46995;55.740;37.402;2023-05-03T11:35:38;99743.47;;;15.67;50.38
61109;BME280;46995;55.740;37.402;2023-05-03T11:38:03;99769.13;;;15.76;50.25
61109;BME280;46995;55.740;37.402;2023-05-03T11:40:30;99750.69;;;15.49;50.62
61109;BME280;46995;55.740;37.402;2023-05-03T11:42:57;99756.56;;;15.52;50.72
61109;BME280;46995;55.740;37.402;2023-05-03T11:45:27;99753.56;;;15.55;50.31
61109;BME280;46995;55.740;37.402;2023-05-03T11:47:54;99754.41;;;15.56;50.82
61109;BME280;46995;55.740;37.402;2023-05-03T11:50:48;99740.78;;;15.59;50.43
61109;BME280;46995;55.740;37.402;2023-05-03T11:53:24;99761.41;;;15.57;50.40
61109;BME280;46995;55.740;37.402;2023-05-03T11:55:52;99766.47;;;15.50;50.74
61109;BME280;46995;55.740;37.402;2023-05-03T11:58:22;99777.56;;;15.63;50.64
61109;BME280;46995;55.740;37.402;2023-05-03T12:00:50;99774.66;;;15.75;50.06
61109;BME280;46995;55.740;37.402;2023-05-03T12:03:27;99758.47;;;15.76;49.99
61109;BME280;46995;55.740;37.402;2023-05-03T12:05:53;99772.88;;;15.91;50.31
61109;BME280;46995;55.740;37.402;2023-05-03T12:08:20;99783.47;;;15.75;50.00
61109;BME280;46995;55.740;37.402;2023-05-03T12:10:48;99772.03;;;15.57;50.89
61109;BME280;46995;55.740;37.402;2023-05-03T12:13:14;99785.69;;;15.54;51.00
61109;BME280;46995;55.740;37.402;2023-05-03T12:15:41;99782.00;;;15.55;50.72
61109;BME280;46995;55.740;37.402;2023-05-03T12:18:11;99790.06;;;15.63;50.34
61109;BME280;46995;55.740;37.402;2023-05-03T12:20:38;99777.38;;;15.57;50.53
61109;BME280;46995;55.740;37.402;2023-05-03T12:23:07;99774.09;;;16.05;50.49
61109;BME280;46995;55.740;37.402;2023-05-03T12:25:33;99778.28;;;17.06;47.50
61109;BME280;46995;55.740;37.402;2023-05-03T12:28:04;99767.44;;;17.24;46.76
61109;BME280;46995;55.740;37.402;2023-05-03T12:30:31;99765.78;;;17.07;46.73
61109;BME280;46995;55.740;37.402;2023-05-03T12:33:00;99763.94;;;16.75;47.64
61109;BME280;46995;55.740;37.402;2023-05-03T12:35:27;99753.03;;;16.44;47.64
61109;BME280;46995;55.740;37.402;2023-05-03T12:37:53;99774.06;;;16.47;48.50
61109;BME280;46995;55.740;37.402;2023-05-03T12:40:20;99760.88;;;16.45;47.92
61109;BME280;46995;55.740;37.402;2023-05-03T12:42:48;99772.09;;;16.65;47.53
61109;BME280;46995;55.740;37.402;2023-05-03T12:45:14;99747.44;;;16.63;47.59
61109;BME280;46995;55.740;37.402;2023-05-03T12:47:40;99765.13;;;16.64;47.39
61109;BME280;46995;55.740;37.402;2023-05-03T12:50:06;99755.41;;;16.55;47.68
61109;BME280;46995;55.740;37.402;2023-05-03T12:52:34;99768.88;;;16.37;48.21
61109;BME280;46995;55.740;37.402;2023-05-03T12:55:04;99740.66;;;16.10;48.28
61109;BME280;46995;55.740;37.402;2023-05-03T12:57:31;99764.00;;;16.17;48.05
61109;BME280;46995;55.740;37.402;2023-05-03T12:59:57;99769.66;;;16.22;47.89
61109;BME280;46995;55.740;37.402;2023-05-03T13:02:24;99768.31;;;16.18;47.85
61109;BME280;46995;55.740;37.402;2023-05-03T13:04:50;99763.59;;;16.03;47.96
61109;BME280;46995;55.740;37.402;2023-05-03T13:07:24;99756.50;;;15.78;48.13
61109;BME280;46995;55.740;37.402;2023-05-03T13:09:57;99750.31;;;15.44;49.05
61109;BME280;46995;55.740;37.402;2023-05-03T13:12:23;99794.50;;;15.37;49.68
61109;BME280;46995;55.740;37.402;2023-05-03T13:14:51;99786.38;;;15.12;49.70
61109;BME280;46995;55.740;37.402;2023-05-03T13:17:18;99787.97;;;15.05;50.19
61109;BME280;46995;55.740;37.402;2023-05-03T13:19:45;99795.09;;;15.05;50.54